sensor_id;sensor_type;location;lat;lon;timestamp;temperature;humidity
25906;DHT22;13713;52.552;13.204;2023-04-15T00:00:03;17.70;64.60
25906;DHT22;13713;52.552;13.204;2023-04-15T00:02:38;17.70;64.60
25906;DHT22;13713;52.552;13.204;2023-04-15T00:05:04;17.80;64.70
25906;DHT22;13713;52.552;13.204;2023-04-15T00:07:30;17.70;64.60
25906;DHT22;13713;52.552;13.204;2023-04-15T00:09:57;17.70;64.60
25906;DHT22;13713;52.552;13.204;2023-04-15T00:12:24;17.70;64.60
25906;DHT22;13713;52.552;13.204;2023-04-15T00:14:50;17.70;64.70
25906;DHT22;13713;52.552;13.204;2023-04-15T00:17:16;17.70;64.70
25906;DHT22;13713;52.552;13.204;2023-04-15T00:19:42;17.70;65.50
25906;DHT22;13713;52.552;13.204;2023-04-15T00:22:10;17.70;64.70
25906;DHT22;13713;52.552;13.204;2023-04-15T00:24:37;17.70;64.70
25906;DHT22;13713;52.552;13.204;2023-04-15T00:27:02;17.70;64.70
25906;DHT22;13713;52.552;13.204;2023-04-15T00:29:29;17.70;64.70
25906;DHT22;13713;52.552;13.204;2023-04-15T00:31:55;17.70;64.70
25906;DHT22;13713;52.552;13.204;2023-04-15T00:34:25;17.70;64.70
25906;DHT22;13713;52.552;13.204;2023-04-15T00:36:52;17.70;64.70
25906;DHT22;13713;52.552;13.204;2023-04-15T00:39:18;17.70;64.70
25906;DHT22;13713;52.552;13.204;2023-04-15T00:41:46;17.70;64.70
25906;DHT22;13713;52.552;13.204;2023-04-15T00:44:12;17.70;64.80
25906;DHT22;13713;52.552;13.204;2023-04-15T00:46:38;17.70;64.70
25906;DHT22;13713;52.552;13.204;2023-04-15T00:49:05;17.60;64.60
25906;DHT22;13713;52.552;13.204;2023-04-15T00:51:32;17.60;64.60
25906;DHT22;13713;52.552;13.204;2023-04-15T00:54:02;17.60;64.70
25906;DHT22;13713;52.552;13.204;2023-04-15T00:56:28;17.60;64.60
25906;DHT22;13713;52.552;13.204;2023-04-15T00:58:54;17.60;65.10
25906;DHT22;13713;52.552;13.204;2023-04-15T01:01:21;17.60;64.60
25906;DHT22;13713;52.552;13.204;2023-04-15T01:03:51;17.60;64.70
25906;DHT22;13713;52.552;13.204;2023-04-15T01:06:17;17.60;64.70
25906;DHT22;13713;52.552;13.204;2023-04-15T01:08:43;17.60;64.70
25906;DHT22;13713;52.552;13.204;2023-04-15T01:11:11;17.60;64.70
25906;DHT22;13713;52.552;13.204;2023-04-15T01:13:38;17.60;64.70
25906;DHT22;13713;52.552;13.204;2023-04-15T01:16:05;17.60;64.70
25906;DHT22;13713;52.552;13.204;2023-04-15T01:18:31;17.60;64.70
25906;DHT22;13713;52.552;13.204;2023-04-15T01:21:00;17.60;64.70
25906;DHT22;13713;52.552;13.204;2023-04-15T01:23:27;17.60;64.70
25906;DHT22;13713;52.552;13.204;2023-04-15T01:25:53;17.60;64.70
25906;DHT22;13713;52.552;13.204;2023-04-15T01:28:20;17.60;64.70
25906;DHT22;13713;52.552;13.204;2023-04-15T01:30:46;17.60;64.70
25906;DHT22;13713;52.552;13.204;2023-04-15T01:33:13;17.60;64.70
25906;DHT22;13713;52.552;13.204;2023-04-15T01:35:39;17.60;64.70
25906;DHT22;13713;52.552;13.204;2023-04-15T01:38:07;17.60;64.70
25906;DHT22;13713;52.552;13.204;2023-04-15T01:40:33;17.60;64.80
25906;DHT22;13713;52.552;13.204;2023-04-15T01:43:00;17.50;64.70
25906;DHT22;13713;52.552;13.204;2023-04-15T01:45:27;17.60;64.80
25906;DHT22;13713;52.552;13.204;2023-04-15T01:47:53;17.50;64.70
25906;DHT22;13713;52.552;13.204;2023-04-15T01:50:19;17.50;64.70
25906;DHT22;13713;52.552;13.204;2023-04-15T01:52:45;17.50;64.70
25906;DHT22;13713;52.552;13.204;2023-04-15T01:55:14;17.50;64.70
25906;DHT22;13713;52.552;13.204;2023-04-15T01:57:39;17.50;64.70
25906;DHT22;13713;52.552;13.204;2023-04-15T02:00:06;17.50;64.70
25906;DHT22;13713;52.552;13.204;2023-04-15T02:02:41;17.50;64.70
25906;DHT22;13713;52.552;13.204;2023-04-15T02:05:07;17.50;64.80
25906;DHT22;13713;52.552;13.204;2023-04-15T02:07:32;17.50;64.80
25906;DHT22;13713;52.552;13.204;2023-04-15T02:09:58;17.50;64.90
25906;DHT22;13713;52.552;13.204;2023-04-15T02:12:24;17.50;64.80
25906;DHT22;13713;52.552;13.204;2023-04-15T02:14:50;17.50;64.80
25906;DHT22;13713;52.552;13.204;2023-04-15T02:17:16;17.50;64.80
25906;DHT22;13713;52.552;13.204;2023-04-15T02:19:42;17.50;64.80
25906;DHT22;13713;52.552;13.204;2023-04-15T02:22:08;17.50;64.80
25906;DHT22;13713;52.552;13.204;2023-04-15T02:24:34;17.50;64.90
25906;DHT22;13713;52.552;13.204;2023-04-15T02:27:01;17.50;64.80
25906;DHT22;13713;52.552;13.204;2023-04-15T02:29:27;17.50;64.80
25906;DHT22;13713;52.552;13.204;2023-04-15T02:31:53;17.50;64.80
25906;DHT22;13713;52.552;13.204;2023-04-15T02:34:19;17.50;65.70
25906;DHT22;13713;52.552;13.204;2023-04-15T02:36:45;17.50;64.80
25906;DHT22;13713;52.552;13.204;2023-04-15T02:39:14;17.50;64.80
25906;DHT22;13713;52.552;13.204;2023-04-15T02:41:41;17.50;64.80
25906;DHT22;13713;52.552;13.204;2023-04-15T02:44:09;17.50;64.80
25906;DHT22;13713;52.552;13.204;2023-04-15T02:46:37;17.50;64.80
25906;DHT22;13713;52.552;13.204;2023-04-15T02:49:03;17.40;64.80
25906;DHT22;13713;52.552;13.204;2023-04-15T02:51:29;17.50;65.60
25906;DHT22;13713;52.552;13.204;2023-04-15T02:53:56;17.40;64.80
25906;DHT22;13713;52.552;13.204;2023-04-15T02:56:22;17.40;64.80
25906;DHT22;13713;52.552;13.204;2023-04-15T02:58:48;17.40;64.80
25906;DHT22;13713;52.552;13.204;2023-04-15T03:01:15;17.40;64.80
25906;DHT22;13713;52.552;13.204;2023-04-15T03:03:41;17.40;64.80
25906;DHT22;13713;52.552;13.204;2023-04-15T03:06:06;17.40;64.90
25906;DHT22;13713;52.552;13.204;2023-04-15T03:08:33;17.40;64.80
25906;DHT22;13713;52.552;13.204;2023-04-15T03:10:59;17.40;64.80
25906;DHT22;13713;52.552;13.204;2023-04-15T03:13:27;17.40;64.80
25906;DHT22;13713;52.552;13.204;2023-04-15T03:15:54;17.40;64.80
25906;DHT22;13713;52.552;13.204;2023-04-15T03:18:22;17.40;64.80
25906;DHT22;13713;52.552;13.204;2023-04-15T03:20:48;17.40;64.80
25906;DHT22;13713;52.552;13.204;2023-04-15T03:23:14;17.40;64.80
25906;DHT22;13713;52.552;13.204;2023-04-15T03:25:39;17.40;64.80
25906;DHT22;13713;52.552;13.204;2023-04-15T03:28:06;17.40;64.80
25906;DHT22;13713;52.552;13.204;2023-04-15T03:30:32;17.40;64.90
25906;DHT22;13713;52.552;13.204;2023-04-15T03:32:58;17.40;64.80
25906;DHT22;13713;52.552;13.204;2023-04-15T03:35:24;17.40;64.80
25906;DHT22;13713;52.552;13.204;2023-04-15T03:37:50;17.40;64.90
25906;DHT22;13713;52.552;13.204;2023-04-15T03:40:16;17.40;64.90
25906;DHT22;13713;52.552;13.204;2023-04-15T03:42:41;17.40;64.90
25906;DHT22;13713;52.552;13.204;2023-04-15T03:45:07;17.40;64.90
25906;DHT22;13713;52.552;13.204;2023-04-15T03:47:33;17.40;64.80
25906;DHT22;13713;52.552;13.204;2023-04-15T03:49:59;17.40;64.90
25906;DHT22;13713;52.552;13.204;2023-04-15T03:52:24;17.30;64.80
25906;DHT22;13713;52.552;13.204;2023-04-15T03:54:50;17.30;64.80
25906;DHT22;13713;52.552;13.204;2023-04-15T03:57:16;17.30;64.80
25906;DHT22;13713;52.552;13.204;2023-04-15T03:59:42;17.30;64.80
25906;DHT22;13713;52.552;13.204;2023-04-15T04:02:08;17.30;64.80
25906;DHT22;13713;52.552;13.204;2023-04-15T04:04:34;17.30;64.80
25906;DHT22;13713;52.552;13.204;2023-04-15T04:06:59;17.30;64.80
25906;DHT22;13713;52.552;13.204;2023-04-15T04:09:25;17.30;64.80
25906;DHT22;13713;52.552;13.204;2023-04-15T04:11:51;17.30;64.90
25906;DHT22;13713;52.552;13.204;2023-04-15T04:14:16;17.30;64.80
25906;DHT22;13713;52.552;13.204;2023-04-15T04:16:42;17.30;64.90
25906;DHT22;13713;52.552;13.204;2023-04-15T04:19:08;17.30;64.90
25906;DHT22;13713;52.552;13.204;2023-04-15T04:21:33;17.30;64.90
25906;DHT22;13713;52.552;13.204;2023-04-15T04:23:59;17.30;64.90
25906;DHT22;13713;52.552;13.204;2023-04-15T04:26:25;17.30;64.90
25906;DHT22;13713;52.552;13.204;2023-04-15T04:28:51;17.30;64.90
25906;DHT22;13713;52.552;13.204;2023-04-15T04:31:17;17.30;64.90
25906;DHT22;13713;52.552;13.204;2023-04-15T04:33:43;17.30;64.90
25906;DHT22;13713;52.552;13.204;2023-04-15T04:36:09;17.30;64.90
25906;DHT22;13713;52.552;13.204;2023-04-15T04:38:34;17.30;65.00
25906;DHT22;13713;52.552;13.204;2023-04-15T04:41:00;17.30;64.90
25906;DHT22;13713;52.552;13.204;2023-04-15T04:43:26;17.30;64.90
25906;DHT22;13713;52.552;13.204;2023-04-15T04:45:52;17.30;65.00
25906;DHT22;13713;52.552;13.204;2023-04-15T04:48:17;17.30;65.00
25906;DHT22;13713;52.552;13.204;2023-04-15T04:50:43;17.20;64.90
25906;DHT22;13713;52.552;13.204;2023-04-15T04:53:09;17.20;64.80
25906;DHT22;13713;52.552;13.204;2023-04-15T04:55:36;17.30;65.00
25906;DHT22;13713;52.552;13.204;2023-04-15T04:58:02;17.20;64.90
25906;DHT22;13713;52.552;13.204;2023-04-15T05:00:28;17.20;64.90
25906;DHT22;13713;52.552;13.204;2023-04-15T05:02:54;17.20;64.90
25906;DHT22;13713;52.552;13.204;2023-04-15T05:05:20;17.20;65.10
25906;DHT22;13713;52.552;13.204;2023-04-15T05:07:46;17.20;64.90
25906;DHT22;13713;52.552;13.204;2023-04-15T05:10:13;17.20;65.00
25906;DHT22;13713;52.552;13.204;2023-04-15T05:12:40;17.20;64.90
25906;DHT22;13713;52.552;13.204;2023-04-15T05:15:06;17.20;64.90
25906;DHT22;13713;52.552;13.204;2023-04-15T05:17:32;17.20;64.90
25906;DHT22;13713;52.552;13.204;2023-04-15T05:20:00;17.20;64.90
25906;DHT22;13713;52.552;13.204;2023-04-15T05:22:26;17.20;65.00
25906;DHT22;13713;52.552;13.204;2023-04-15T05:24:51;17.20;65.00
25906;DHT22;13713;52.552;13.204;2023-04-15T05:27:17;17.20;65.00
25906;DHT22;13713;52.552;13.204;2023-04-15T05:29:43;17.20;65.00
25906;DHT22;13713;52.552;13.204;2023-04-15T05:32:09;17.20;65.80
25906;DHT22;13713;52.552;13.204;2023-04-15T05:34:35;17.20;65.00
25906;DHT22;13713;52.552;13.204;2023-04-15T05:37:01;17.20;65.00
25906;DHT22;13713;52.552;13.204;2023-04-15T05:39:27;17.20;65.00
25906;DHT22;13713;52.552;13.204;2023-04-15T05:41:53;17.20;65.00
25906;DHT22;13713;52.552;13.204;2023-04-15T05:44:19;17.20;65.10
25906;DHT22;13713;52.552;13.204;2023-04-15T05:46:44;17.20;65.00
25906;DHT22;13713;52.552;13.204;2023-04-15T05:49:10;17.20;65.00
25906;DHT22;13713;52.552;13.204;2023-04-15T05:51:36;17.20;65.00
25906;DHT22;13713;52.552;13.204;2023-04-15T05:54:02;17.20;65.10
25906;DHT22;13713;52.552;13.204;2023-04-15T05:56:27;17.20;65.10
25906;DHT22;13713;52.552;13.204;2023-04-15T05:58:53;17.10;65.00
25906;DHT22;13713;52.552;13.204;2023-04-15T06:01:19;17.20;65.10
25906;DHT22;13713;52.552;13.204;2023-04-15T06:03:45;17.20;65.10
25906;DHT22;13713;52.552;13.204;2023-04-15T06:06:10;17.20;65.10
25906;DHT22;13713;52.552;13.204;2023-04-15T06:08:36;17.10;65.00
25906;DHT22;13713;52.552;13.204;2023-04-15T06:11:02;17.20;65.10
25906;DHT22;13713;52.552;13.204;2023-04-15T06:13:28;17.10;65.00
25906;DHT22;13713;52.552;13.204;2023-04-15T06:15:54;17.10;65.00
25906;DHT22;13713;52.552;13.204;2023-04-15T06:18:19;17.10;65.00
25906;DHT22;13713;52.552;13.204;2023-04-15T06:20:45;17.10;65.00
25906;DHT22;13713;52.552;13.204;2023-04-15T06:23:11;17.10;65.10
25906;DHT22;13713;52.552;13.204;2023-04-15T06:25:37;17.10;65.00
25906;DHT22;13713;52.552;13.204;2023-04-15T06:28:03;17.10;65.00
25906;DHT22;13713;52.552;13.204;2023-04-15T06:30:28;17.10;65.00
25906;DHT22;13713;52.552;13.204;2023-04-15T06:32:54;17.10;65.00
25906;DHT22;13713;52.552;13.204;2023-04-15T06:35:20;17.10;65.10
25906;DHT22;13713;52.552;13.204;2023-04-15T06:37:46;17.10;65.00
25906;DHT22;13713;52.552;13.204;2023-04-15T06:40:12;17.10;65.00
25906;DHT22;13713;52.552;13.204;2023-04-15T06:42:38;17.10;65.10
25906;DHT22;13713;52.552;13.204;2023-04-15T06:45:04;17.10;65.10
25906;DHT22;13713;52.552;13.204;2023-04-15T06:47:31;17.10;65.10
25906;DHT22;13713;52.552;13.204;2023-04-15T06:49:57;17.10;65.10
25906;DHT22;13713;52.552;13.204;2023-04-15T06:52:22;17.10;65.10
25906;DHT22;13713;52.552;13.204;2023-04-15T06:54:48;17.10;65.10
25906;DHT22;13713;52.552;13.204;2023-04-15T06:57:14;17.10;65.10
25906;DHT22;13713;52.552;13.204;2023-04-15T06:59:39;17.10;65.10
25906;DHT22;13713;52.552;13.204;2023-04-15T07:02:07;17.10;65.10
25906;DHT22;13713;52.552;13.204;2023-04-15T07:04:36;17.10;65.10
25906;DHT22;13713;52.552;13.204;2023-04-15T07:07:02;17.10;65.10
25906;DHT22;13713;52.552;13.204;2023-04-15T07:09:28;17.20;65.20
25906;DHT22;13713;52.552;13.204;2023-04-15T07:11:54;17.10;65.00
25906;DHT22;13713;52.552;13.204;2023-04-15T07:14:19;17.10;65.00
25906;DHT22;13713;52.552;13.204;2023-04-15T07:16:46;17.10;65.10
25906;DHT22;13713;52.552;13.204;2023-04-15T07:19:11;17.10;65.00
25906;DHT22;13713;52.552;13.204;2023-04-15T07:21:37;17.10;65.00
25906;DHT22;13713;52.552;13.204;2023-04-15T07:24:03;17.10;65.00
25906;DHT22;13713;52.552;13.204;2023-04-15T07:26:29;17.10;65.10
25906;DHT22;13713;52.552;13.204;2023-04-15T07:28:54;17.20;65.20
25906;DHT22;13713;52.552;13.204;2023-04-15T07:31:20;17.10;65.10
25906;DHT22;13713;52.552;13.204;2023-04-15T07:33:46;17.10;65.10
25906;DHT22;13713;52.552;13.204;2023-04-15T07:36:12;17.10;65.10
25906;DHT22;13713;52.552;13.204;2023-04-15T07:38:39;17.10;65.10
25906;DHT22;13713;52.552;13.204;2023-04-15T07:41:04;17.10;65.20
25906;DHT22;13713;52.552;13.204;2023-04-15T07:43:30;17.10;66.00
25906;DHT22;13713;52.552;13.204;2023-04-15T07:45:56;17.10;65.20
25906;DHT22;13713;52.552;13.204;2023-04-15T07:48:21;17.10;65.20
25906;DHT22;13713;52.552;13.204;2023-04-15T07:50:47;17.10;65.20
25906;DHT22;13713;52.552;13.204;2023-04-15T07:53:13;17.10;65.20
25906;DHT22;13713;52.552;13.204;2023-04-15T07:55:39;17.10;65.20
25906;DHT22;13713;52.552;13.204;2023-04-15T07:58:05;17.10;65.30
25906;DHT22;13713;52.552;13.204;2023-04-15T08:00:31;17.10;65.30
25906;DHT22;13713;52.552;13.204;2023-04-15T08:02:56;17.10;65.30
25906;DHT22;13713;52.552;13.204;2023-04-15T08:05:24;17.10;66.10
25906;DHT22;13713;52.552;13.204;2023-04-15T08:07:50;17.10;65.30
25906;DHT22;13713;52.552;13.204;2023-04-15T08:10:16;17.10;65.30
25906;DHT22;13713;52.552;13.204;2023-04-15T08:12:42;17.10;65.30
25906;DHT22;13713;52.552;13.204;2023-04-15T08:15:08;17.10;65.30
25906;DHT22;13713;52.552;13.204;2023-04-15T08:17:34;17.10;65.30
25906;DHT22;13713;52.552;13.204;2023-04-15T08:19:59;17.10;65.30
25906;DHT22;13713;52.552;13.204;2023-04-15T08:22:25;17.10;65.30
25906;DHT22;13713;52.552;13.204;2023-04-15T08:24:52;17.10;65.30
25906;DHT22;13713;52.552;13.204;2023-04-15T08:27:17;17.10;65.30
25906;DHT22;13713;52.552;13.204;2023-04-15T08:29:43;17.10;65.30
25906;DHT22;13713;52.552;13.204;2023-04-15T08:32:10;17.10;65.30
25906;DHT22;13713;52.552;13.204;2023-04-15T08:34:35;17.10;65.40
25906;DHT22;13713;52.552;13.204;2023-04-15T08:37:01;17.10;65.40
25906;DHT22;13713;52.552;13.204;2023-04-15T08:39:27;17.00;65.30
25906;DHT22;13713;52.552;13.204;2023-04-15T08:42:00;17.10;65.40
25906;DHT22;13713;52.552;13.204;2023-04-15T08:44:35;17.00;65.30
25906;DHT22;13713;52.552;13.204;2023-04-15T08:47:07;17.00;65.40
25906;DHT22;13713;52.552;13.204;2023-04-15T08:49:36;17.00;65.30
25906;DHT22;13713;52.552;13.204;2023-04-15T08:52:03;17.00;65.30
25906;DHT22;13713;52.552;13.204;2023-04-15T08:54:30;17.10;65.50
25906;DHT22;13713;52.552;13.204;2023-04-15T08:56:57;17.10;65.50
25906;DHT22;13713;52.552;13.204;2023-04-15T08:59:23;17.00;65.30
25906;DHT22;13713;52.552;13.204;2023-04-15T09:01:49;17.00;65.30
25906;DHT22;13713;52.552;13.204;2023-04-15T09:04:18;17.00;65.30
25906;DHT22;13713;52.552;13.204;2023-04-15T09:06:43;17.00;66.20
25906;DHT22;13713;52.552;13.204;2023-04-15T09:09:09;17.10;65.40
25906;DHT22;13713;52.552;13.204;2023-04-15T09:11:37;17.00;65.30
25906;DHT22;13713;52.552;13.204;2023-04-15T09:14:03;17.00;65.40
25906;DHT22;13713;52.552;13.204;2023-04-15T09:16:29;17.00;65.40
25906;DHT22;13713;52.552;13.204;2023-04-15T09:18:55;17.00;65.40
25906;DHT22;13713;52.552;13.204;2023-04-15T09:21:21;17.00;65.40
25906;DHT22;13713;52.552;13.204;2023-04-15T09:24:14;17.00;65.40
25906;DHT22;13713;52.552;13.204;2023-04-15T09:26:40;17.00;65.40
25906;DHT22;13713;52.552;13.204;2023-04-15T09:29:07;17.00;65.40
25906;DHT22;13713;52.552;13.204;2023-04-15T09:31:34;17.00;65.40
25906;DHT22;13713;52.552;13.204;2023-04-15T09:34:00;17.00;65.40
25906;DHT22;13713;52.552;13.204;2023-04-15T09:36:26;17.00;65.40
25906;DHT22;13713;52.552;13.204;2023-04-15T09:38:58;17.00;65.50
25906;DHT22;13713;52.552;13.204;2023-04-15T09:41:25;17.00;65.50
25906;DHT22;13713;52.552;13.204;2023-04-15T09:43:51;17.00;65.50
25906;DHT22;13713;52.552;13.204;2023-04-15T09:46:17;17.00;65.50
25906;DHT22;13713;52.552;13.204;2023-04-15T09:48:43;17.00;65.50
25906;DHT22;13713;52.552;13.204;2023-04-15T09:51:09;17.00;66.30
25906;DHT22;13713;52.552;13.204;2023-04-15T09:53:35;17.00;66.40
25906;DHT22;13713;52.552;13.204;2023-04-15T09:56:03;17.00;65.50
25906;DHT22;13713;52.552;13.204;2023-04-15T09:58:33;17.00;65.50
25906;DHT22;13713;52.552;13.204;2023-04-15T10:01:02;17.00;65.60
25906;DHT22;13713;52.552;13.204;2023-04-15T10:03:28;17.00;65.60
25906;DHT22;13713;52.552;13.204;2023-04-15T10:05:57;17.00;65.60
25906;DHT22;13713;52.552;13.204;2023-04-15T10:08:28;17.00;65.60
25906;DHT22;13713;52.552;13.204;2023-04-15T10:10:54;17.00;65.60
25906;DHT22;13713;52.552;13.204;2023-04-15T10:13:24;17.00;65.60
25906;DHT22;13713;52.552;13.204;2023-04-15T10:16:05;17.00;65.60
25906;DHT22;13713;52.552;13.204;2023-04-15T10:18:34;17.00;65.60
25906;DHT22;13713;52.552;13.204;2023-04-15T10:21:00;17.00;65.60
25906;DHT22;13713;52.552;13.204;2023-04-15T10:23:27;17.00;66.40
25906;DHT22;13713;52.552;13.204;2023-04-15T10:25:53;17.00;65.70
25906;DHT22;13713;52.552;13.204;2023-04-15T10:28:20;16.90;65.60
25906;DHT22;13713;52.552;13.204;2023-04-15T10:30:48;17.00;65.70
25906;DHT22;13713;52.552;13.204;2023-04-15T10:33:16;17.00;65.70
25906;DHT22;13713;52.552;13.204;2023-04-15T10:35:43;17.00;65.70
25906;DHT22;13713;52.552;13.204;2023-04-15T10:38:32;17.00;66.50
25906;DHT22;13713;52.552;13.204;2023-04-15T10:43:45;16.90;65.70
25906;DHT22;13713;52.552;13.204;2023-04-15T10:46:12;16.90;65.70
25906;DHT22;13713;52.552;13.204;2023-04-15T10:48:49;16.90;65.70
25906;DHT22;13713;52.552;13.204;2023-04-15T10:51:16;16.90;65.70
25906;DHT22;13713;52.552;13.204;2023-04-15T10:53:41;16.90;65.80
25906;DHT22;13713;52.552;13.204;2023-04-15T10:56:09;16.90;65.70
25906;DHT22;13713;52.552;13.204;2023-04-15T10:58:41;16.90;65.70
25906;DHT22;13713;52.552;13.204;2023-04-15T11:01:07;16.90;65.80
25906;DHT22;13713;52.552;13.204;2023-04-15T11:03:38;16.90;65.80
25906;DHT22;13713;52.552;13.204;2023-04-15T11:06:05;16.90;65.80
25906;DHT22;13713;52.552;13.204;2023-04-15T11:08:57;16.90;65.90
25906;DHT22;13713;52.552;13.204;2023-04-15T11:14:27;16.90;65.90
25906;DHT22;13713;52.552;13.204;2023-04-15T11:16:52;16.90;65.90
25906;DHT22;13713;52.552;13.204;2023-04-15T11:19:18;16.90;65.90
25906;DHT22;13713;52.552;13.204;2023-04-15T11:21:44;16.90;65.90
25906;DHT22;13713;52.552;13.204;2023-04-15T11:24:10;16.90;66.00
25906;DHT22;13713;52.552;13.204;2023-04-15T11:26:35;16.90;65.90
25906;DHT22;13713;52.552;13.204;2023-04-15T11:29:01;17.10;66.90
25906;DHT22;13713;52.552;13.204;2023-04-15T11:31:27;16.90;66.00
25906;DHT22;13713;52.552;13.204;2023-04-15T11:36:18;16.90;66.00
25906;DHT22;13713;52.552;13.204;2023-04-15T11:38:46;16.90;66.00
25906;DHT22;13713;52.552;13.204;2023-04-15T11:41:11;16.90;66.10
25906;DHT22;13713;52.552;13.204;2023-04-15T11:43:37;16.90;66.10
25906;DHT22;13713;52.552;13.204;2023-04-15T11:46:03;16.90;66.10
25906;DHT22;13713;52.552;13.204;2023-04-15T11:48:34;16.90;66.10
25906;DHT22;13713;52.552;13.204;2023-04-15T11:51:03;16.90;66.10
25906;DHT22;13713;52.552;13.204;2023-04-15T11:53:36;16.90;66.20
25906;DHT22;13713;52.552;13.204;2023-04-15T11:56:02;16.90;66.10
25906;DHT22;13713;52.552;13.204;2023-04-15T11:58:29;16.90;66.20
25906;DHT22;13713;52.552;13.204;2023-04-15T12:00:57;16.90;66.20
25906;DHT22;13713;52.552;13.204;2023-04-15T12:03:27;16.90;66.30
25906;DHT22;13713;52.552;13.204;2023-04-15T12:14:06;16.90;66.40
25906;DHT22;13713;52.552;13.204;2023-04-15T12:16:34;16.90;66.40
25906;DHT22;13713;52.552;13.204;2023-04-15T12:19:04;16.90;66.40
25906;DHT22;13713;52.552;13.204;2023-04-15T12:21:34;16.90;66.40
25906;DHT22;13713;52.552;13.204;2023-04-15T12:24:02;16.90;66.40
25906;DHT22;13713;52.552;13.204;2023-04-15T12:29:06;16.90;66.50
25906;DHT22;13713;52.552;13.204;2023-04-15T12:31:36;16.90;67.30
25906;DHT22;13713;52.552;13.204;2023-04-15T12:34:05;16.90;66.50
25906;DHT22;13713;52.552;13.204;2023-04-15T12:36:32;16.90;66.60
25906;DHT22;13713;52.552;13.204;2023-04-15T12:39:04;16.90;66.50
25906;DHT22;13713;52.552;13.204;2023-04-15T12:41:33;16.90;66.60
25906;DHT22;13713;52.552;13.204;2023-04-15T12:43:59;16.90;66.60
25906;DHT22;13713;52.552;13.204;2023-04-15T12:46:25;16.90;66.70
25906;DHT22;13713;52.552;13.204;2023-04-15T12:48:51;16.90;66.60
25906;DHT22;13713;52.552;13.204;2023-04-15T12:51:18;16.90;66.60
25906;DHT22;13713;52.552;13.204;2023-04-15T12:53:45;16.90;66.70
25906;DHT22;13713;52.552;13.204;2023-04-15T12:56:12;16.90;66.70
25906;DHT22;13713;52.552;13.204;2023-04-15T12:58:38;16.90;66.70
25906;DHT22;13713;52.552;13.204;2023-04-15T13:01:04;16.90;66.70
25906;DHT22;13713;52.552;13.204;2023-04-15T13:03:30;16.90;66.70
25906;DHT22;13713;52.552;13.204;2023-04-15T13:05:56;16.90;66.70
25906;DHT22;13713;52.552;13.204;2023-04-15T13:08:22;16.90;66.80
25906;DHT22;13713;52.552;13.204;2023-04-15T13:10:48;16.90;66.80
25906;DHT22;13713;52.552;13.204;2023-04-15T13:13:13;16.90;66.80
25906;DHT22;13713;52.552;13.204;2023-04-15T13:15:40;16.80;66.80
25906;DHT22;13713;52.552;13.204;2023-04-15T13:18:06;16.90;66.80
25906;DHT22;13713;52.552;13.204;2023-04-15T13:20:32;16.90;66.90
25906;DHT22;13713;52.552;13.204;2023-04-15T13:22:58;16.90;66.90
25906;DHT22;13713;52.552;13.204;2023-04-15T13:25:24;16.80;66.90
25906;DHT22;13713;52.552;13.204;2023-04-15T13:27:50;16.90;67.00
25906;DHT22;13713;52.552;13.204;2023-04-15T13:30:16;16.80;66.90
25906;DHT22;13713;52.552;13.204;2023-04-15T13:32:43;16.80;67.00
25906;DHT22;13713;52.552;13.204;2023-04-15T13:35:08;16.80;67.00
25906;DHT22;13713;52.552;13.204;2023-04-15T13:37:34;16.80;67.00
25906;DHT22;13713;52.552;13.204;2023-04-15T13:40:00;16.80;67.00
25906;DHT22;13713;52.552;13.204;2023-04-15T13:42:26;16.80;67.00
25906;DHT22;13713;52.552;13.204;2023-04-15T13:44:52;16.80;67.00
25906;DHT22;13713;52.552;13.204;2023-04-15T13:47:20;16.80;67.00
25906;DHT22;13713;52.552;13.204;2023-04-15T13:49:46;16.80;67.10
25906;DHT22;13713;52.552;13.204;2023-04-15T13:52:12;16.80;67.10
25906;DHT22;13713;52.552;13.204;2023-04-15T13:54:38;16.80;67.10
25906;DHT22;13713;52.552;13.204;2023-04-15T13:57:04;16.80;67.10
25906;DHT22;13713;52.552;13.204;2023-04-15T13:59:32;16.80;67.10
25906;DHT22;13713;52.552;13.204;2023-04-15T14:01:57;16.80;67.10
25906;DHT22;13713;52.552;13.204;2023-04-15T14:04:23;16.80;67.10
25906;DHT22;13713;52.552;13.204;2023-04-15T14:06:49;16.80;67.10
25906;DHT22;13713;52.552;13.204;2023-04-15T14:09:15;16.80;67.20
25906;DHT22;13713;52.552;13.204;2023-04-15T14:11:41;16.80;67.20
25906;DHT22;13713;52.552;13.204;2023-04-15T14:14:07;16.80;67.20
25906;DHT22;13713;52.552;13.204;2023-04-15T14:16:33;16.80;67.20
25906;DHT22;13713;52.552;13.204;2023-04-15T14:18:59;16.80;67.20
25906;DHT22;13713;52.552;13.204;2023-04-15T14:21:25;16.80;68.00
25906;DHT22;13713;52.552;13.204;2023-04-15T14:23:53;16.80;68.00
25906;DHT22;13713;52.552;13.204;2023-04-15T14:26:19;16.80;67.30
25906;DHT22;13713;52.552;13.204;2023-04-15T14:28:44;16.80;67.30
25906;DHT22;13713;52.552;13.204;2023-04-15T14:31:10;16.80;67.30
25906;DHT22;13713;52.552;13.204;2023-04-15T14:33:36;16.80;67.40
25906;DHT22;13713;52.552;13.204;2023-04-15T14:36:02;16.80;67.40
25906;DHT22;13713;52.552;13.204;2023-04-15T14:38:27;16.80;67.40
25906;DHT22;13713;52.552;13.204;2023-04-15T14:40:53;16.80;67.40
25906;DHT22;13713;52.552;13.204;2023-04-15T14:43:19;16.80;67.40
25906;DHT22;13713;52.552;13.204;2023-04-15T14:45:46;16.80;67.40
25906;DHT22;13713;52.552;13.204;2023-04-15T14:48:12;16.80;67.40
25906;DHT22;13713;52.552;13.204;2023-04-15T14:50:38;16.80;67.50
25906;DHT22;13713;52.552;13.204;2023-04-15T14:53:04;16.80;67.40
25906;DHT22;13713;52.552;13.204;2023-04-15T14:55:30;16.80;67.50
25906;DHT22;13713;52.552;13.204;2023-04-15T14:57:56;16.80;67.50
25906;DHT22;13713;52.552;13.204;2023-04-15T15:00:21;16.80;67.50
25906;DHT22;13713;52.552;13.204;2023-04-15T15:02:47;16.80;67.50
25906;DHT22;13713;52.552;13.204;2023-04-15T15:05:13;16.70;67.50
25906;DHT22;13713;52.552;13.204;2023-04-15T15:07:39;16.80;68.30
25906;DHT22;13713;52.552;13.204;2023-04-15T15:10:07;16.80;67.50
25906;DHT22;13713;52.552;13.204;2023-04-15T15:12:33;16.70;67.50
25906;DHT22;13713;52.552;13.204;2023-04-15T15:14:59;16.80;67.60
25906;DHT22;13713;52.552;13.204;2023-04-15T15:17:25;16.80;67.60
25906;DHT22;13713;52.552;13.204;2023-04-15T15:19:50;16.80;67.60
25906;DHT22;13713;52.552;13.204;2023-04-15T15:22:16;16.70;67.50
25906;DHT22;13713;52.552;13.204;2023-04-15T15:24:42;16.80;67.60
25906;DHT22;13713;52.552;13.204;2023-04-15T15:27:08;16.70;67.60
25906;DHT22;13713;52.552;13.204;2023-04-15T15:29:34;16.80;67.60